createdAt,value
2023-02-11T00:00:27.722Z,-3.30
2023-02-11T00:05:31.054Z,-3.40
2023-02-11T00:10:34.610Z,-3.40
2023-02-11T00:15:39.261Z,-2.20
2023-02-11T00:20:42.979Z,-3.50
2023-02-11T00:25:46.929Z,-3.50
2023-02-11T00:30:57.112Z,-3.60
2023-02-11T00:36:04.488Z,-0.70
2023-02-11T00:41:07.792Z,-3.90
2023-02-11T00:46:12.617Z,-3.70
2023-02-11T00:51:16.278Z,-3.80
2023-02-11T00:56:19.531Z,-2.90
2023-02-11T01:01:24.424Z,-3.90
2023-02-11T01:06:27.800Z,-3.90
2023-02-11T01:11:31.086Z,-3.90
2023-02-11T01:16:35.827Z,-4.00
2023-02-11T01:21:39.169Z,-4.10
2023-02-11T01:26:42.459Z,-4.10
2023-02-11T01:31:47.255Z,-4.10
2023-02-11T01:36:50.511Z,-3.10
2023-02-11T01:41:53.932Z,-4.10
2023-02-11T01:46:58.730Z,-4.10
2023-02-11T01:52:04.724Z,-3.80
2023-02-11T01:57:25.134Z,-3.50
2023-02-11T02:02:35.606Z,-3.70
2023-02-11T02:07:46.250Z,-4.10
2023-02-11T02:12:49.765Z,-4.00
2023-02-11T02:18:01.976Z,-4.20
2023-02-11T02:23:36.818Z,-4.20
2023-02-11T02:29:07.997Z,-4.30
2023-02-11T02:34:20.874Z,-4.30
2023-02-11T02:39:27.506Z,-4.30
2023-02-11T02:44:32.084Z,-4.30
2023-02-11T02:49:36.705Z,-4.00
2023-02-11T02:55:06.998Z,-3.70
2023-02-11T03:00:19.190Z,-3.90
2023-02-11T03:05:32.005Z,-4.00
2023-02-11T03:10:39.722Z,-3.50
2023-02-11T03:15:45.363Z,-4.00
2023-02-11T03:20:54.429Z,-3.60
2023-02-11T03:26:00.696Z,-4.00
2023-02-11T03:31:12.095Z,-4.00
2023-02-11T03:36:24.097Z,-3.90
2023-02-11T03:41:27.728Z,-3.90
2023-02-11T03:46:34.683Z,-3.90
2023-02-11T03:51:40.477Z,-3.80
2023-02-11T03:56:52.010Z,-3.80
2023-02-11T04:01:55.880Z,-3.60
2023-02-11T04:07:00.508Z,-2.90
2023-02-11T04:12:03.840Z,-3.20
2023-02-11T04:17:07.409Z,-3.30
2023-02-11T04:22:12.130Z,-3.30
2023-02-11T04:27:15.557Z,-3.30
2023-02-11T04:32:19.090Z,-3.30
2023-02-11T04:37:23.915Z,-3.10
2023-02-11T04:42:27.360Z,-3.20
2023-02-11T04:47:30.811Z,-3.20
2023-02-11T04:52:35.609Z,-3.10
2023-02-11T04:57:39.034Z,-3.10
2023-02-11T05:02:42.433Z,-3.20
2023-02-11T05:07:48.494Z,-3.20
2023-02-11T05:12:53.521Z,-3.10
2023-02-11T05:17:58.794Z,-3.00
2023-02-11T05:23:03.631Z,-3.00
2023-02-11T05:28:07.859Z,-3.00
2023-02-11T05:33:11.254Z,-2.90
2023-02-11T05:38:15.952Z,-2.90
2023-02-11T05:43:19.245Z,-2.80
2023-02-11T05:48:22.498Z,-3.10
2023-02-11T05:53:27.266Z,-3.00
2023-02-11T05:58:30.667Z,-3.20
2023-02-11T06:03:33.994Z,-3.10
2023-02-11T06:08:39.360Z,-3.00
2023-02-11T06:13:42.871Z,-2.60
2023-02-11T06:18:46.111Z,-2.80
2023-02-11T06:23:50.803Z,-2.50
2023-02-11T06:28:54.173Z,-2.60
2023-02-11T06:33:58.537Z,-2.50
2023-02-11T06:39:03.292Z,-2.50
2023-02-11T06:44:06.872Z,-2.60
2023-02-11T06:49:10.159Z,-2.50
2023-02-11T06:54:14.896Z,-2.20
2023-02-11T06:59:19.124Z,-2.10
2023-02-11T07:04:22.803Z,-2.00
2023-02-11T07:09:27.493Z,-1.90
2023-02-11T07:14:30.748Z,-0.30
2023-02-11T07:19:34.204Z,-1.90
2023-02-11T07:24:38.852Z,-1.90
2023-02-11T07:29:45.844Z,-1.80
2023-02-11T07:34:49.697Z,-1.70
2023-02-11T07:39:54.486Z,-1.70
2023-02-11T07:44:57.846Z,-1.30
2023-02-11T07:50:01.071Z,-1.00
2023-02-11T07:55:06.136Z,-0.80
2023-02-11T08:00:10.395Z,-0.50
2023-02-11T08:05:16.714Z,-0.10
2023-02-11T08:10:22.122Z,0.00
2023-02-11T08:15:25.361Z,0.00
2023-02-11T08:20:28.742Z,-0.30
2023-02-11T08:25:34.245Z,-0.40
2023-02-11T08:30:37.679Z,-0.40
2023-02-11T08:35:41.491Z,-0.20
2023-02-11T08:40:46.270Z,-0.20
2023-02-11T08:45:49.887Z,-0.10
2023-02-11T08:50:53.411Z,0.30
2023-02-11T08:55:58.247Z,0.50
2023-02-11T09:01:01.608Z,0.50
2023-02-11T09:06:07.007Z,0.60
2023-02-11T09:11:12.460Z,1.40
2023-02-11T09:16:20.193Z,2.90
2023-02-11T09:21:23.543Z,3.10
2023-02-11T09:26:30.094Z,3.30
2023-02-11T09:31:35.019Z,3.90
2023-02-11T09:36:40.846Z,3.80
2023-02-11T09:42:08.834Z,3.30
2023-02-11T09:47:24.637Z,2.40
2023-02-11T09:52:36.976Z,2.20
2023-02-11T09:57:41.774Z,1.80
2023-02-11T10:03:00.336Z,1.90
2023-02-11T10:08:13.651Z,2.10
2023-02-11T10:13:37.075Z,2.20
2023-02-11T10:18:54.678Z,2.70
2023-02-11T10:24:04.479Z,2.60
2023-02-11T10:29:21.937Z,2.50
2023-02-11T10:34:25.258Z,2.40
2023-02-11T10:39:29.522Z,2.50
2023-02-11T10:44:37.542Z,2.80
2023-02-11T10:49:43.465Z,2.90
2023-02-11T10:55:01.485Z,3.20
2023-02-11T11:00:24.186Z,3.00
2023-02-11T11:05:32.713Z,3.30
2023-02-11T11:10:44.022Z,3.40
2023-02-11T11:16:07.458Z,3.20
2023-02-11T11:21:16.720Z,3.30
2023-02-11T11:26:20.512Z,3.40
2023-02-11T11:31:29.411Z,3.30
2023-02-11T11:36:37.163Z,3.40
2023-02-11T11:41:51.586Z,3.50
2023-02-11T11:47:21.719Z,4.30
2023-02-11T11:52:38.851Z,3.60
2023-02-11T11:57:43.351Z,4.00
2023-02-11T12:03:12.455Z,4.60
2023-02-11T12:08:23.328Z,4.80
2023-02-11T12:13:44.178Z,4.60
2023-02-11T12:19:25.566Z,4.30
2023-02-11T12:24:42.832Z,4.80
2023-02-11T12:30:01.776Z,5.20
2023-02-11T12:35:32.102Z,5.40
2023-02-11T12:40:43.709Z,5.20
2023-02-11T12:46:03.816Z,5.10
2023-02-11T12:51:20.093Z,5.10
2023-02-11T12:56:31.356Z,6.00
2023-02-11T13:01:40.068Z,5.50
2023-02-11T13:06:48.567Z,5.40
2023-02-11T13:11:56.193Z,5.30
2023-02-11T13:17:00.610Z,5.30
2023-02-11T13:22:10.896Z,4.90
2023-02-11T13:27:38.338Z,4.90
2023-02-11T13:33:04.248Z,4.60
2023-02-11T13:38:21.540Z,4.60
2023-02-11T13:43:28.601Z,4.40
2023-02-11T13:48:34.648Z,4.30
2023-02-11T13:53:51.034Z,4.20
2023-02-11T13:58:54.344Z,4.00
2023-02-11T14:04:40.138Z,3.90
2023-02-11T14:09:44.878Z,3.90
2023-02-11T14:15:05.391Z,3.80
2023-02-11T14:20:36.590Z,3.90
2023-02-11T14:25:44.664Z,3.90
2023-02-11T14:30:59.279Z,3.80
2023-02-11T14:36:12.356Z,4.10
2023-02-11T14:41:22.129Z,4.30
2023-02-11T14:46:27.789Z,4.40
2023-02-11T14:51:36.244Z,4.40
2023-02-11T14:56:41.812Z,4.40
2023-02-11T15:01:47.961Z,4.50
2023-02-11T15:06:51.845Z,4.50
2023-02-11T15:11:59.058Z,4.30
2023-02-11T15:17:04.628Z,4.10
2023-02-11T15:22:18.310Z,4.20
2023-02-11T15:27:25.817Z,3.60
2023-02-11T15:32:29.853Z,3.40
2023-02-11T15:37:34.196Z,4.10
2023-02-11T15:42:52.204Z,3.70
2023-02-11T15:48:00.311Z,3.80
2023-02-11T15:53:18.340Z,3.80
2023-02-11T15:58:23.934Z,3.70
2023-02-11T16:03:32.765Z,3.40
2023-02-11T16:08:37.683Z,3.30
2023-02-11T16:13:48.308Z,3.30
2023-02-11T16:19:04.310Z,3.30
2023-02-11T16:24:09.389Z,3.20
2023-02-11T16:29:17.319Z,3.10
2023-02-11T16:34:22.380Z,3.00
2023-02-11T16:39:25.828Z,2.90
2023-02-11T16:44:30.837Z,2.90
2023-02-11T16:49:36.987Z,2.80
2023-02-11T16:54:40.414Z,2.70
2023-02-11T16:59:45.625Z,2.70
2023-02-11T17:04:49.413Z,2.60
2023-02-11T17:09:53.091Z,2.70
2023-02-11T17:14:57.774Z,2.70
2023-02-11T17:20:01.159Z,2.60
2023-02-11T17:25:04.583Z,2.50
2023-02-11T17:30:11.180Z,2.50
2023-02-11T17:35:14.455Z,2.60
2023-02-11T17:40:18.000Z,2.40
2023-02-11T17:45:22.690Z,2.30
2023-02-11T17:50:28.874Z,2.30
2023-02-11T17:55:34.571Z,2.30
2023-02-11T18:00:39.414Z,2.40
2023-02-11T18:05:42.938Z,2.40
2023-02-11T18:10:47.075Z,2.40
2023-02-11T18:15:53.302Z,2.40
2023-02-11T18:21:00.040Z,2.40
2023-02-11T18:26:03.949Z,2.30
2023-02-11T18:31:10.649Z,2.30
2023-02-11T18:36:17.561Z,2.40
2023-02-11T18:41:22.021Z,2.40
2023-02-11T18:46:26.730Z,2.30
2023-02-11T18:51:32.478Z,2.40
2023-02-11T18:56:35.783Z,2.30
2023-02-11T19:01:43.379Z,2.30
2023-02-11T19:06:49.517Z,2.30
2023-02-11T19:11:54.313Z,2.30
2023-02-11T19:17:01.899Z,2.20
2023-02-11T19:22:09.963Z,2.20
2023-02-11T19:27:13.757Z,2.20
2023-02-11T19:32:18.422Z,2.20
2023-02-11T19:37:21.767Z,2.20
2023-02-11T19:42:27.586Z,2.20
2023-02-11T19:47:32.398Z,2.30
2023-02-11T19:52:38.250Z,2.30
2023-02-11T19:57:41.497Z,2.30
2023-02-11T20:02:47.211Z,0.70
2023-02-11T20:07:50.590Z,2.70
2023-02-11T20:12:54.255Z,2.60
2023-02-11T20:17:58.946Z,2.30
2023-02-11T20:23:02.199Z,2.20
2023-02-11T20:28:05.820Z,2.30
2023-02-11T20:33:10.779Z,2.40
2023-02-11T20:38:14.084Z,2.60
2023-02-11T20:43:17.794Z,2.80
2023-02-11T20:48:22.441Z,3.00
2023-02-11T20:53:25.677Z,3.20
2023-02-11T20:58:29.073Z,3.40
2023-02-11T21:03:33.821Z,3.50
2023-02-11T21:08:37.140Z,3.50
2023-02-11T21:13:41.669Z,3.50
2023-02-11T21:18:46.415Z,3.50
2023-02-11T21:23:49.681Z,3.60
2023-02-11T21:28:53.260Z,3.60
2023-02-11T21:33:59.618Z,3.60
2023-02-11T21:39:04.058Z,3.60
2023-02-11T21:44:07.543Z,3.60
2023-02-11T21:49:12.221Z,3.50
2023-02-11T21:54:15.637Z,3.30
2023-02-11T21:59:19.422Z,3.20
2023-02-11T22:04:24.291Z,3.20
2023-02-11T22:09:27.753Z,2.90
2023-02-11T22:14:32.412Z,2.80
2023-02-11T22:19:37.936Z,2.70
2023-02-11T22:24:41.946Z,2.60
2023-02-11T22:29:45.682Z,2.60
2023-02-11T22:34:53.108Z,2.60
2023-02-11T22:40:00.228Z,2.60
2023-02-11T22:45:03.650Z,2.40
2023-02-11T22:50:09.469Z,2.90
2023-02-11T22:55:13.135Z,3.00
2023-02-11T23:00:20.892Z,3.10
2023-02-11T23:05:25.553Z,3.20
2023-02-11T23:10:28.918Z,3.20
2023-02-11T23:15:32.531Z,3.40
2023-02-11T23:20:38.428Z,3.40
2023-02-11T23:25:45.231Z,3.50
2023-02-11T23:30:48.536Z,3.60
2023-02-11T23:35:53.796Z,3.60
2023-02-11T23:40:57.309Z,3.60
2023-02-11T23:46:00.742Z,3.70
2023-02-11T23:51:06.473Z,5.80
2023-02-11T23:56:11.474Z,3.70
